sensor_id;sensor_type;location;lat;lon;timestamp;P1;durP1;ratioP1;P2;durP2;ratioP2
79348;SDS011;68817;48.110;11.660;2023-07-31T00:01:40;3.30;;;1.40;;
79348;SDS011;68817;48.110;11.660;2023-07-31T00:04:06;4.07;;;1.55;;
79348;SDS011;68817;48.110;11.660;2023-07-31T00:06:31;4.32;;;1.55;;
79348;SDS011;68817;48.110;11.660;2023-07-31T00:08:56;4.32;;;1.70;;
79348;SDS011;68817;48.110;11.660;2023-07-31T00:11:22;3.65;;;1.40;;
79348;SDS011;68817;48.110;11.660;2023-07-31T00:13:47;3.67;;;1.60;;
79348;SDS011;68817;48.110;11.660;2023-07-31T00:16:13;2.15;;;1.17;;
79348;SDS011;68817;48.110;11.660;2023-07-31T00:18:38;6.35;;;1.48;;
79348;SDS011;68817;48.110;11.660;2023-07-31T00:21:03;3.85;;;1.60;;
79348;SDS011;68817;48.110;11.660;2023-07-31T00:23:29;3.10;;;1.60;;
79348;SDS011;68817;48.110;11.660;2023-07-31T00:25:54;3.55;;;1.40;;
79348;SDS011;68817;48.110;11.660;2023-07-31T00:28:20;3.42;;;1.30;;
79348;SDS011;68817;48.110;11.660;2023-07-31T00:30:45;3.58;;;1.58;;
79348;SDS011;68817;48.110;11.660;2023-07-31T00:33:10;2.72;;;1.50;;
79348;SDS011;68817;48.110;11.660;2023-07-31T00:35:36;2.47;;;1.67;;
79348;SDS011;68817;48.110;11.660;2023-07-31T00:38:01;2.50;;;1.30;;
79348;SDS011;68817;48.110;11.660;2023-07-31T00:40:27;2.80;;;1.40;;
79348;SDS011;68817;48.110;11.660;2023-07-31T00:42:52;2.05;;;1.30;;
79348;SDS011;68817;48.110;11.660;2023-07-31T00:45:17;4.00;;;1.40;;
79348;SDS011;68817;48.110;11.660;2023-07-31T00:47:43;3.60;;;1.35;;
79348;SDS011;68817;48.110;11.660;2023-07-31T00:50:08;3.55;;;1.40;;
79348;SDS011;68817;48.110;11.660;2023-07-31T00:52:35;2.42;;;1.35;;
79348;SDS011;68817;48.110;11.660;2023-07-31T00:55:00;3.42;;;1.65;;
79348;SDS011;68817;48.110;11.660;2023-07-31T00:57:26;4.30;;;1.90;;
79348;SDS011;68817;48.110;11.660;2023-07-31T00:59:51;4.35;;;1.48;;
79348;SDS011;68817;48.110;11.660;2023-07-31T01:02:17;4.18;;;1.65;;
79348;SDS011;68817;48.110;11.660;2023-07-31T01:04:43;2.13;;;1.23;;
79348;SDS011;68817;48.110;11.660;2023-07-31T01:07:20;2.80;;;1.80;;
79348;SDS011;68817;48.110;11.660;2023-07-31T01:09:53;2.88;;;1.60;;
79348;SDS011;68817;48.110;11.660;2023-07-31T01:12:23;3.22;;;1.50;;
79348;SDS011;68817;48.110;11.660;2023-07-31T01:15:01;2.60;;;1.52;;
79348;SDS011;68817;48.110;11.660;2023-07-31T01:17:27;3.15;;;1.60;;
79348;SDS011;68817;48.110;11.660;2023-07-31T01:19:53;3.95;;;1.73;;
79348;SDS011;68817;48.110;11.660;2023-07-31T01:25:14;3.45;;;1.70;;
79348;SDS011;68817;48.110;11.660;2023-07-31T01:28:30;2.63;;;1.50;;
79348;SDS011;68817;48.110;11.660;2023-07-31T01:30:38;6.57;;;2.17;;
79348;SDS011;68817;48.110;11.660;2023-07-31T01:33:07;2.55;;;1.60;;
79348;SDS011;68817;48.110;11.660;2023-07-31T01:35:33;3.47;;;1.80;;
79348;SDS011;68817;48.110;11.660;2023-07-31T01:37:59;3.92;;;2.00;;
79348;SDS011;68817;48.110;11.660;2023-07-31T01:40:25;3.47;;;1.70;;
79348;SDS011;68817;48.110;11.660;2023-07-31T01:42:50;5.22;;;1.70;;
79348;SDS011;68817;48.110;11.660;2023-07-31T01:45:16;3.55;;;1.65;;
79348;SDS011;68817;48.110;11.660;2023-07-31T01:47:41;2.15;;;1.60;;
79348;SDS011;68817;48.110;11.660;2023-07-31T01:50:07;3.13;;;1.70;;
79348;SDS011;68817;48.110;11.660;2023-07-31T01:52:32;4.38;;;1.70;;
79348;SDS011;68817;48.110;11.660;2023-07-31T01:54:57;3.28;;;1.50;;
79348;SDS011;68817;48.110;11.660;2023-07-31T01:57:23;2.67;;;1.42;;
79348;SDS011;68817;48.110;11.660;2023-07-31T01:59:48;2.80;;;1.77;;
79348;SDS011;68817;48.110;11.660;2023-07-31T02:02:14;2.42;;;1.17;;
79348;SDS011;68817;48.110;11.660;2023-07-31T02:04:39;2.63;;;1.48;;
79348;SDS011;68817;48.110;11.660;2023-07-31T02:07:07;2.35;;;1.48;;
79348;SDS011;68817;48.110;11.660;2023-07-31T02:09:32;5.25;;;2.20;;
79348;SDS011;68817;48.110;11.660;2023-07-31T02:11:58;2.75;;;1.63;;
79348;SDS011;68817;48.110;11.660;2023-07-31T02:14:23;3.47;;;1.75;;
79348;SDS011;68817;48.110;11.660;2023-07-31T02:16:49;1.92;;;1.30;;
79348;SDS011;68817;48.110;11.660;2023-07-31T02:19:15;3.22;;;1.60;;
79348;SDS011;68817;48.110;11.660;2023-07-31T02:21:41;4.20;;;1.42;;
79348;SDS011;68817;48.110;11.660;2023-07-31T02:24:06;5.60;;;1.98;;
79348;SDS011;68817;48.110;11.660;2023-07-31T02:26:31;3.60;;;1.52;;
79348;SDS011;68817;48.110;11.660;2023-07-31T02:28:57;3.88;;;1.88;;
79348;SDS011;68817;48.110;11.660;2023-07-31T02:31:22;2.72;;;1.60;;
79348;SDS011;68817;48.110;11.660;2023-07-31T02:33:48;4.18;;;1.73;;
79348;SDS011;68817;48.110;11.660;2023-07-31T02:36:13;2.33;;;1.67;;
79348;SDS011;68817;48.110;11.660;2023-07-31T02:38:39;3.53;;;1.52;;
79348;SDS011;68817;48.110;11.660;2023-07-31T02:41:05;3.55;;;1.75;;
79348;SDS011;68817;48.110;11.660;2023-07-31T02:43:31;2.67;;;1.73;;
79348;SDS011;68817;48.110;11.660;2023-07-31T02:45:56;4.15;;;1.60;;
79348;SDS011;68817;48.110;11.660;2023-07-31T02:48:22;3.70;;;1.58;;
79348;SDS011;68817;48.110;11.660;2023-07-31T02:50:48;3.75;;;1.70;;
79348;SDS011;68817;48.110;11.660;2023-07-31T02:53:13;3.80;;;1.73;;
79348;SDS011;68817;48.110;11.660;2023-07-31T02:55:39;4.35;;;1.80;;
79348;SDS011;68817;48.110;11.660;2023-07-31T02:58:05;4.47;;;1.70;;
79348;SDS011;68817;48.110;11.660;2023-07-31T03:00:31;3.53;;;1.52;;
79348;SDS011;68817;48.110;11.660;2023-07-31T03:02:56;5.47;;;1.80;;
79348;SDS011;68817;48.110;11.660;2023-07-31T03:05:22;4.80;;;1.90;;
79348;SDS011;68817;48.110;11.660;2023-07-31T03:07:47;3.80;;;2.05;;
79348;SDS011;68817;48.110;11.660;2023-07-31T03:10:12;4.45;;;1.90;;
79348;SDS011;68817;48.110;11.660;2023-07-31T03:12:39;4.35;;;1.90;;
79348;SDS011;68817;48.110;11.660;2023-07-31T03:15:05;5.20;;;1.90;;
79348;SDS011;68817;48.110;11.660;2023-07-31T03:17:31;3.22;;;1.77;;
79348;SDS011;68817;48.110;11.660;2023-07-31T03:19:56;3.90;;;1.73;;
79348;SDS011;68817;48.110;11.660;2023-07-31T03:22:22;3.28;;;1.90;;
79348;SDS011;68817;48.110;11.660;2023-07-31T03:24:47;2.60;;;1.92;;
79348;SDS011;68817;48.110;11.660;2023-07-31T03:27:12;2.50;;;1.70;;
79348;SDS011;68817;48.110;11.660;2023-07-31T03:29:38;3.28;;;1.92;;
79348;SDS011;68817;48.110;11.660;2023-07-31T03:32:03;4.57;;;1.88;;
79348;SDS011;68817;48.110;11.660;2023-07-31T03:34:29;3.28;;;2.08;;
79348;SDS011;68817;48.110;11.660;2023-07-31T03:36:54;2.30;;;2.00;;
79348;SDS011;68817;48.110;11.660;2023-07-31T03:39:20;3.38;;;1.83;;
79348;SDS011;68817;48.110;11.660;2023-07-31T03:41:45;3.13;;;1.83;;
79348;SDS011;68817;48.110;11.660;2023-07-31T03:44:11;3.08;;;1.90;;
79348;SDS011;68817;48.110;11.660;2023-07-31T03:46:36;4.35;;;1.90;;
79348;SDS011;68817;48.110;11.660;2023-07-31T03:49:01;3.53;;;1.83;;
79348;SDS011;68817;48.110;11.660;2023-07-31T03:51:27;4.13;;;2.28;;
79348;SDS011;68817;48.110;11.660;2023-07-31T03:53:52;3.30;;;2.03;;
79348;SDS011;68817;48.110;11.660;2023-07-31T03:56:17;4.15;;;1.90;;
79348;SDS011;68817;48.110;11.660;2023-07-31T03:58:43;3.55;;;1.90;;
79348;SDS011;68817;48.110;11.660;2023-07-31T04:01:08;4.13;;;1.77;;
79348;SDS011;68817;48.110;11.660;2023-07-31T04:03:34;4.88;;;1.98;;
79348;SDS011;68817;48.110;11.660;2023-07-31T04:05:59;5.25;;;2.00;;
79348;SDS011;68817;48.110;11.660;2023-07-31T04:08:24;3.15;;;2.00;;
79348;SDS011;68817;48.110;11.660;2023-07-31T04:10:50;2.65;;;1.80;;
79348;SDS011;68817;48.110;11.660;2023-07-31T04:13:15;4.75;;;2.22;;
79348;SDS011;68817;48.110;11.660;2023-07-31T04:15:41;2.58;;;2.10;;
79348;SDS011;68817;48.110;11.660;2023-07-31T04:18:06;4.72;;;1.98;;
79348;SDS011;68817;48.110;11.660;2023-07-31T04:20:32;4.75;;;2.38;;
79348;SDS011;68817;48.110;11.660;2023-07-31T04:22:57;3.97;;;1.90;;
79348;SDS011;68817;48.110;11.660;2023-07-31T04:25:22;3.30;;;2.03;;
79348;SDS011;68817;48.110;11.660;2023-07-31T04:27:48;2.80;;;1.90;;
79348;SDS011;68817;48.110;11.660;2023-07-31T04:30:13;4.55;;;2.10;;
79348;SDS011;68817;48.110;11.660;2023-07-31T04:32:39;4.28;;;2.20;;
79348;SDS011;68817;48.110;11.660;2023-07-31T04:35:04;4.97;;;2.40;;
79348;SDS011;68817;48.110;11.660;2023-07-31T04:37:30;4.72;;;2.13;;
79348;SDS011;68817;48.110;11.660;2023-07-31T04:39:55;3.03;;;2.00;;
79348;SDS011;68817;48.110;11.660;2023-07-31T04:42:21;3.33;;;2.00;;
79348;SDS011;68817;48.110;11.660;2023-07-31T04:44:46;2.92;;;1.83;;
79348;SDS011;68817;48.110;11.660;2023-07-31T04:47:12;3.78;;;2.10;;
79348;SDS011;68817;48.110;11.660;2023-07-31T04:49:37;3.15;;;2.05;;
79348;SDS011;68817;48.110;11.660;2023-07-31T04:52:03;5.05;;;2.17;;
79348;SDS011;68817;48.110;11.660;2023-07-31T04:54:29;4.00;;;2.00;;
79348;SDS011;68817;48.110;11.660;2023-07-31T04:56:54;3.60;;;1.85;;
79348;SDS011;68817;48.110;11.660;2023-07-31T04:59:20;4.47;;;2.00;;
79348;SDS011;68817;48.110;11.660;2023-07-31T05:01:45;3.20;;;2.00;;
79348;SDS011;68817;48.110;11.660;2023-07-31T05:04:12;5.75;;;2.17;;
79348;SDS011;68817;48.110;11.660;2023-07-31T05:06:38;4.53;;;2.30;;
79348;SDS011;68817;48.110;11.660;2023-07-31T05:09:04;5.15;;;2.20;;
79348;SDS011;68817;48.110;11.660;2023-07-31T05:11:29;4.72;;;1.85;;
79348;SDS011;68817;48.110;11.660;2023-07-31T05:13:54;4.93;;;2.17;;
79348;SDS011;68817;48.110;11.660;2023-07-31T05:16:20;4.75;;;2.30;;
79348;SDS011;68817;48.110;11.660;2023-07-31T05:18:45;3.85;;;2.00;;
79348;SDS011;68817;48.110;11.660;2023-07-31T05:21:11;3.60;;;2.13;;
79348;SDS011;68817;48.110;11.660;2023-07-31T05:23:36;3.83;;;2.17;;
79348;SDS011;68817;48.110;11.660;2023-07-31T05:26:05;2.75;;;1.75;;
79348;SDS011;68817;48.110;11.660;2023-07-31T05:28:31;3.13;;;1.85;;
79348;SDS011;68817;48.110;11.660;2023-07-31T05:30:59;4.72;;;2.08;;
79348;SDS011;68817;48.110;11.660;2023-07-31T05:33:26;3.17;;;2.05;;
79348;SDS011;68817;48.110;11.660;2023-07-31T05:35:51;3.83;;;2.00;;
79348;SDS011;68817;48.110;11.660;2023-07-31T05:38:16;5.40;;;2.13;;
79348;SDS011;68817;48.110;11.660;2023-07-31T05:40:42;5.90;;;2.08;;
79348;SDS011;68817;48.110;11.660;2023-07-31T05:43:08;4.28;;;2.30;;
79348;SDS011;68817;48.110;11.660;2023-07-31T05:45:34;3.88;;;1.92;;
79348;SDS011;68817;48.110;11.660;2023-07-31T05:47:59;3.67;;;1.80;;
79348;SDS011;68817;48.110;11.660;2023-07-31T05:50:25;3.20;;;1.88;;
79348;SDS011;68817;48.110;11.660;2023-07-31T05:52:50;2.85;;;1.65;;
79348;SDS011;68817;48.110;11.660;2023-07-31T05:55:16;5.30;;;2.00;;
79348;SDS011;68817;48.110;11.660;2023-07-31T05:57:42;7.47;;;2.15;;
79348;SDS011;68817;48.110;11.660;2023-07-31T06:00:07;1.90;;;1.42;;
79348;SDS011;68817;48.110;11.660;2023-07-31T06:02:33;4.25;;;1.63;;
79348;SDS011;68817;48.110;11.660;2023-07-31T06:05:01;3.78;;;1.60;;
79348;SDS011;68817;48.110;11.660;2023-07-31T06:07:29;3.83;;;1.95;;
79348;SDS011;68817;48.110;11.660;2023-07-31T06:09:54;4.15;;;1.52;;
79348;SDS011;68817;48.110;11.660;2023-07-31T06:12:20;2.67;;;1.83;;
79348;SDS011;68817;48.110;11.660;2023-07-31T06:14:46;4.22;;;1.60;;
79348;SDS011;68817;48.110;11.660;2023-07-31T06:17:11;3.15;;;1.70;;
79348;SDS011;68817;48.110;11.660;2023-07-31T06:19:36;4.30;;;1.70;;
79348;SDS011;68817;48.110;11.660;2023-07-31T06:22:02;4.03;;;1.73;;
79348;SDS011;68817;48.110;11.660;2023-07-31T06:24:27;4.30;;;1.67;;
79348;SDS011;68817;48.110;11.660;2023-07-31T06:26:53;3.38;;;1.70;;
79348;SDS011;68817;48.110;11.660;2023-07-31T06:29:18;4.07;;;1.83;;
79348;SDS011;68817;48.110;11.660;2023-07-31T06:31:44;2.88;;;1.88;;
79348;SDS011;68817;48.110;11.660;2023-07-31T06:34:09;4.40;;;1.83;;
79348;SDS011;68817;48.110;11.660;2023-07-31T06:36:35;4.22;;;1.67;;
79348;SDS011;68817;48.110;11.660;2023-07-31T06:39:00;2.80;;;1.48;;
79348;SDS011;68817;48.110;11.660;2023-07-31T06:41:26;5.63;;;1.70;;
79348;SDS011;68817;48.110;11.660;2023-07-31T06:43:52;3.50;;;1.65;;
79348;SDS011;68817;48.110;11.660;2023-07-31T06:46:17;4.60;;;1.83;;
79348;SDS011;68817;48.110;11.660;2023-07-31T06:48:43;3.47;;;1.40;;
79348;SDS011;68817;48.110;11.660;2023-07-31T06:51:08;3.53;;;1.50;;
79348;SDS011;68817;48.110;11.660;2023-07-31T06:53:34;4.05;;;1.67;;
79348;SDS011;68817;48.110;11.660;2023-07-31T06:55:59;4.13;;;1.90;;
79348;SDS011;68817;48.110;11.660;2023-07-31T06:58:24;3.30;;;1.63;;
79348;SDS011;68817;48.110;11.660;2023-07-31T07:00:50;3.67;;;1.73;;
79348;SDS011;68817;48.110;11.660;2023-07-31T07:03:17;6.20;;;1.25;;
79348;SDS011;68817;48.110;11.660;2023-07-31T07:05:43;3.78;;;1.67;;
79348;SDS011;68817;48.110;11.660;2023-07-31T07:08:08;2.42;;;1.35;;
79348;SDS011;68817;48.110;11.660;2023-07-31T07:10:34;3.92;;;1.92;;
79348;SDS011;68817;48.110;11.660;2023-07-31T07:12:59;4.15;;;1.38;;
79348;SDS011;68817;48.110;11.660;2023-07-31T07:15:24;3.10;;;1.50;;
79348;SDS011;68817;48.110;11.660;2023-07-31T07:17:50;3.70;;;1.55;;
79348;SDS011;68817;48.110;11.660;2023-07-31T07:20:15;3.95;;;1.40;;
79348;SDS011;68817;48.110;11.660;2023-07-31T07:22:41;2.13;;;1.40;;
79348;SDS011;68817;48.110;11.660;2023-07-31T07:25:08;3.75;;;1.60;;
79348;SDS011;68817;48.110;11.660;2023-07-31T07:27:33;4.88;;;1.75;;
79348;SDS011;68817;48.110;11.660;2023-07-31T07:29:59;2.85;;;1.60;;
79348;SDS011;68817;48.110;11.660;2023-07-31T07:32:24;3.30;;;1.50;;
79348;SDS011;68817;48.110;11.660;2023-07-31T07:34:50;2.92;;;1.42;;
79348;SDS011;68817;48.110;11.660;2023-07-31T07:37:15;3.47;;;1.52;;
79348;SDS011;68817;48.110;11.660;2023-07-31T07:39:41;3.40;;;1.50;;
79348;SDS011;68817;48.110;11.660;2023-07-31T07:42:07;2.05;;;1.58;;
79348;SDS011;68817;48.110;11.660;2023-07-31T07:44:32;2.60;;;1.42;;
79348;SDS011;68817;48.110;11.660;2023-07-31T07:46:57;3.08;;;1.58;;
79348;SDS011;68817;48.110;11.660;2023-07-31T07:49:23;2.42;;;1.33;;
79348;SDS011;68817;48.110;11.660;2023-07-31T07:51:48;2.65;;;1.52;;
79348;SDS011;68817;48.110;11.660;2023-07-31T07:54:14;2.55;;;1.55;;
79348;SDS011;68817;48.110;11.660;2023-07-31T07:56:41;2.33;;;1.17;;
79348;SDS011;68817;48.110;11.660;2023-07-31T07:59:07;2.63;;;1.40;;
79348;SDS011;68817;48.110;11.660;2023-07-31T08:01:32;3.75;;;1.38;;
79348;SDS011;68817;48.110;11.660;2023-07-31T08:03:58;2.03;;;1.27;;
79348;SDS011;68817;48.110;11.660;2023-07-31T08:06:23;2.72;;;1.27;;
79348;SDS011;68817;48.110;11.660;2023-07-31T08:08:49;2.78;;;1.38;;
79348;SDS011;68817;48.110;11.660;2023-07-31T08:11:14;3.00;;;1.48;;
79348;SDS011;68817;48.110;11.660;2023-07-31T08:13:40;2.95;;;1.48;;
79348;SDS011;68817;48.110;11.660;2023-07-31T08:16:05;2.65;;;1.40;;
79348;SDS011;68817;48.110;11.660;2023-07-31T08:18:31;2.78;;;1.27;;
79348;SDS011;68817;48.110;11.660;2023-07-31T08:20:57;1.88;;;1.13;;
79348;SDS011;68817;48.110;11.660;2023-07-31T08:23:22;3.90;;;1.70;;
79348;SDS011;68817;48.110;11.660;2023-07-31T08:25:48;1.92;;;1.38;;
79348;SDS011;68817;48.110;11.660;2023-07-31T08:28:15;3.28;;;1.55;;
79348;SDS011;68817;48.110;11.660;2023-07-31T08:30:41;3.13;;;1.33;;
79348;SDS011;68817;48.110;11.660;2023-07-31T08:33:07;4.60;;;1.40;;
79348;SDS011;68817;48.110;11.660;2023-07-31T08:35:32;2.70;;;1.73;;
79348;SDS011;68817;48.110;11.660;2023-07-31T08:37:58;2.88;;;1.45;;
79348;SDS011;68817;48.110;11.660;2023-07-31T08:40:23;3.38;;;1.60;;
79348;SDS011;68817;48.110;11.660;2023-07-31T08:42:49;3.00;;;1.40;;
79348;SDS011;68817;48.110;11.660;2023-07-31T08:45:19;3.20;;;1.50;;
79348;SDS011;68817;48.110;11.660;2023-07-31T08:47:49;3.30;;;1.60;;
79348;SDS011;68817;48.110;11.660;2023-07-31T08:50:16;3.28;;;1.50;;
79348;SDS011;68817;48.110;11.660;2023-07-31T08:52:42;3.00;;;1.50;;
79348;SDS011;68817;48.110;11.660;2023-07-31T08:55:08;3.83;;;1.50;;
79348;SDS011;68817;48.110;11.660;2023-07-31T08:57:35;2.88;;;1.60;;
79348;SDS011;68817;48.110;11.660;2023-07-31T09:00:02;2.92;;;1.50;;
79348;SDS011;68817;48.110;11.660;2023-07-31T09:02:30;2.85;;;1.35;;
79348;SDS011;68817;48.110;11.660;2023-07-31T09:04:59;3.97;;;1.58;;
79348;SDS011;68817;48.110;11.660;2023-07-31T09:07:25;3.67;;;1.40;;
79348;SDS011;68817;48.110;11.660;2023-07-31T09:09:50;4.80;;;1.60;;
79348;SDS011;68817;48.110;11.660;2023-07-31T09:12:16;2.17;;;1.42;;
79348;SDS011;68817;48.110;11.660;2023-07-31T09:14:42;2.50;;;1.45;;
79348;SDS011;68817;48.110;11.660;2023-07-31T09:17:09;3.75;;;1.40;;
79348;SDS011;68817;48.110;11.660;2023-07-31T09:19:35;6.30;;;1.50;;
79348;SDS011;68817;48.110;11.660;2023-07-31T09:22:06;3.08;;;1.42;;
79348;SDS011;68817;48.110;11.660;2023-07-31T09:24:32;2.75;;;1.30;;
79348;SDS011;68817;48.110;11.660;2023-07-31T09:26:59;2.55;;;1.30;;
79348;SDS011;68817;48.110;11.660;2023-07-31T09:29:25;2.58;;;1.30;;
79348;SDS011;68817;48.110;11.660;2023-07-31T09:31:52;2.95;;;1.65;;
79348;SDS011;68817;48.110;11.660;2023-07-31T09:34:17;3.40;;;1.63;;
79348;SDS011;68817;48.110;11.660;2023-07-31T09:36:43;1.95;;;1.13;;
79348;SDS011;68817;48.110;11.660;2023-07-31T09:39:13;4.05;;;1.27;;
79348;SDS011;68817;48.110;11.660;2023-07-31T09:41:45;2.08;;;1.40;;
79348;SDS011;68817;48.110;11.660;2023-07-31T09:44:12;2.95;;;1.13;;
79348;SDS011;68817;48.110;11.660;2023-07-31T09:46:37;2.78;;;1.50;;
79348;SDS011;68817;48.110;11.660;2023-07-31T09:49:12;2.70;;;1.35;;
79348;SDS011;68817;48.110;11.660;2023-07-31T09:51:39;2.35;;;1.30;;
79348;SDS011;68817;48.110;11.660;2023-07-31T09:54:09;2.33;;;1.55;;
79348;SDS011;68817;48.110;11.660;2023-07-31T09:56:41;2.70;;;1.38;;
79348;SDS011;68817;48.110;11.660;2023-07-31T09:59:14;2.60;;;1.30;;
79348;SDS011;68817;48.110;11.660;2023-07-31T10:01:41;2.95;;;1.30;;
79348;SDS011;68817;48.110;11.660;2023-07-31T10:04:08;5.03;;;1.60;;
79348;SDS011;68817;48.110;11.660;2023-07-31T10:06:37;4.80;;;1.55;;
79348;SDS011;68817;48.110;11.660;2023-07-31T10:09:07;2.33;;;1.40;;
79348;SDS011;68817;48.110;11.660;2023-07-31T10:11:44;5.05;;;1.58;;
79348;SDS011;68817;48.110;11.660;2023-07-31T10:14:16;3.67;;;1.42;;
79348;SDS011;68817;48.110;11.660;2023-07-31T10:16:43;4.68;;;2.10;;
79348;SDS011;68817;48.110;11.660;2023-07-31T10:19:09;5.13;;;1.50;;
79348;SDS011;68817;48.110;11.660;2023-07-31T10:21:35;2.97;;;1.60;;
79348;SDS011;68817;48.110;11.660;2023-07-31T10:24:03;2.92;;;1.40;;
79348;SDS011;68817;48.110;11.660;2023-07-31T10:26:29;5.82;;;1.60;;
79348;SDS011;68817;48.110;11.660;2023-07-31T10:28:56;3.25;;;1.70;;
79348;SDS011;68817;48.110;11.660;2023-07-31T10:31:23;2.55;;;1.30;;
79348;SDS011;68817;48.110;11.660;2023-07-31T10:33:49;4.20;;;1.40;;
79348;SDS011;68817;48.110;11.660;2023-07-31T10:36:16;3.05;;;1.40;;
79348;SDS011;68817;48.110;11.660;2023-07-31T10:38:43;2.83;;;1.55;;
79348;SDS011;68817;48.110;11.660;2023-07-31T10:41:08;3.20;;;1.42;;
79348;SDS011;68817;48.110;11.660;2023-07-31T10:43:35;2.60;;;1.50;;
79348;SDS011;68817;48.110;11.660;2023-07-31T10:46:06;2.67;;;1.60;;
79348;SDS011;68817;48.110;11.660;2023-07-31T10:48:33;3.08;;;1.58;;
79348;SDS011;68817;48.110;11.660;2023-07-31T10:50:59;4.10;;;1.52;;
79348;SDS011;68817;48.110;11.660;2023-07-31T10:53:31;3.50;;;1.63;;
79348;SDS011;68817;48.110;11.660;2023-07-31T10:55:58;2.83;;;1.70;;
79348;SDS011;68817;48.110;11.660;2023-07-31T10:58:30;2.60;;;1.30;;
79348;SDS011;68817;48.110;11.660;2023-07-31T11:01:01;2.95;;;1.48;;
79348;SDS011;68817;48.110;11.660;2023-07-31T11:06:28;2.47;;;1.40;;
79348;SDS011;68817;48.110;11.660;2023-07-31T11:08:54;2.60;;;1.70;;
79348;SDS011;68817;48.110;11.660;2023-07-31T11:11:20;3.90;;;1.73;;
79348;SDS011;68817;48.110;11.660;2023-07-31T11:13:49;2.88;;;1.50;;
79348;SDS011;68817;48.110;11.660;2023-07-31T11:16:18;3.40;;;1.33;;
79348;SDS011;68817;48.110;11.660;2023-07-31T11:18:44;2.72;;;1.60;;
79348;SDS011;68817;48.110;11.660;2023-07-31T11:21:14;2.92;;;1.30;;
79348;SDS011;68817;48.110;11.660;2023-07-31T11:26:06;2.70;;;1.47;;
79348;SDS011;68817;48.110;11.660;2023-07-31T11:28:32;5.13;;;1.60;;
79348;SDS011;68817;48.110;11.660;2023-07-31T11:30:59;3.35;;;1.50;;
79348;SDS011;68817;48.110;11.660;2023-07-31T11:33:25;2.63;;;1.60;;
79348;SDS011;68817;48.110;11.660;2023-07-31T11:35:51;5.93;;;1.50;;
79348;SDS011;68817;48.110;11.660;2023-07-31T11:38:27;2.88;;;1.50;;
79348;SDS011;68817;48.110;11.660;2023-07-31T11:40:55;3.00;;;1.40;;
79348;SDS011;68817;48.110;11.660;2023-07-31T11:43:23;3.28;;;1.42;;
79348;SDS011;68817;48.110;11.660;2023-07-31T11:45:49;3.95;;;1.60;;
79348;SDS011;68817;48.110;11.660;2023-07-31T11:50:50;3.35;;;1.58;;
79348;SDS011;68817;48.110;11.660;2023-07-31T11:53:17;2.80;;;1.60;;
79348;SDS011;68817;48.110;11.660;2023-07-31T11:55:45;3.35;;;1.38;;
79348;SDS011;68817;48.110;11.660;2023-07-31T11:58:11;3.08;;;1.40;;
79348;SDS011;68817;48.110;11.660;2023-07-31T12:00:36;3.00;;;1.50;;
79348;SDS011;68817;48.110;11.660;2023-07-31T12:03:02;2.08;;;1.50;;
79348;SDS011;68817;48.110;11.660;2023-07-31T12:05:28;3.05;;;1.50;;
79348;SDS011;68817;48.110;11.660;2023-07-31T12:07:53;2.80;;;1.23;;
79348;SDS011;68817;48.110;11.660;2023-07-31T12:10:23;4.22;;;1.75;;
79348;SDS011;68817;48.110;11.660;2023-07-31T12:15:21;2.70;;;1.52;;
79348;SDS011;68817;48.110;11.660;2023-07-31T12:17:47;3.28;;;1.42;;
79348;SDS011;68817;48.110;11.660;2023-07-31T12:20:12;3.97;;;1.70;;
79348;SDS011;68817;48.110;11.660;2023-07-31T12:22:38;3.15;;;1.48;;
79348;SDS011;68817;48.110;11.660;2023-07-31T12:25:03;5.00;;;1.70;;
79348;SDS011;68817;48.110;11.660;2023-07-31T12:27:32;3.38;;;1.60;;
79348;SDS011;68817;48.110;11.660;2023-07-31T12:29:58;3.97;;;1.58;;
79348;SDS011;68817;48.110;11.660;2023-07-31T12:32:23;3.03;;;1.50;;
79348;SDS011;68817;48.110;11.660;2023-07-31T12:34:50;3.08;;;1.67;;
79348;SDS011;68817;48.110;11.660;2023-07-31T12:37:16;3.97;;;1.60;;
79348;SDS011;68817;48.110;11.660;2023-07-31T12:39:42;3.13;;;1.58;;
79348;SDS011;68817;48.110;11.660;2023-07-31T12:42:07;3.92;;;2.28;;
79348;SDS011;68817;48.110;11.660;2023-07-31T12:44:32;2.85;;;1.60;;
79348;SDS011;68817;48.110;11.660;2023-07-31T12:46:58;2.65;;;1.38;;
79348;SDS011;68817;48.110;11.660;2023-07-31T12:49:24;3.10;;;1.83;;
79348;SDS011;68817;48.110;11.660;2023-07-31T12:51:49;2.13;;;1.40;;
79348;SDS011;68817;48.110;11.660;2023-07-31T12:54:15;2.97;;;1.30;;
79348;SDS011;68817;48.110;11.660;2023-07-31T12:56:40;2.78;;;1.33;;
79348;SDS011;68817;48.110;11.660;2023-07-31T12:59:06;3.65;;;1.50;;
79348;SDS011;68817;48.110;11.660;2023-07-31T13:01:31;3.10;;;1.67;;
79348;SDS011;68817;48.110;11.660;2023-07-31T13:03:57;3.00;;;1.60;;
79348;SDS011;68817;48.110;11.660;2023-07-31T13:06:24;2.75;;;1.38;;
79348;SDS011;68817;48.110;11.660;2023-07-31T13:08:50;2.92;;;1.50;;
79348;SDS011;68817;48.110;11.660;2023-07-31T13:11:15;2.72;;;1.73;;
79348;SDS011;68817;48.110;11.660;2023-07-31T13:13:41;2.92;;;1.45;;
79348;SDS011;68817;48.110;11.660;2023-07-31T13:16:06;2.88;;;1.60;;
79348;SDS011;68817;48.110;11.660;2023-07-31T13:18:32;3.17;;;1.40;;
79348;SDS011;68817;48.110;11.660;2023-07-31T13:20:57;5.00;;;1.40;;
79348;SDS011;68817;48.110;11.660;2023-07-31T13:23:23;3.40;;;1.55;;
79348;SDS011;68817;48.110;11.660;2023-07-31T13:25:48;4.43;;;1.60;;
79348;SDS011;68817;48.110;11.660;2023-07-31T13:28:13;2.47;;;1.30;;
79348;SDS011;68817;48.110;11.660;2023-07-31T13:30:39;2.72;;;1.50;;
79348;SDS011;68817;48.110;11.660;2023-07-31T13:33:04;2.63;;;1.23;;
79348;SDS011;68817;48.110;11.660;2023-07-31T13:35:30;2.58;;;1.42;;
79348;SDS011;68817;48.110;11.660;2023-07-31T13:37:56;2.83;;;1.50;;
79348;SDS011;68817;48.110;11.660;2023-07-31T13:40:22;2.50;;;1.60;;
79348;SDS011;68817;48.110;11.660;2023-07-31T13:42:48;2.17;;;1.50;;
79348;SDS011;68817;48.110;11.660;2023-07-31T13:45:13;2.78;;;1.45;;
79348;SDS011;68817;48.110;11.660;2023-07-31T13:47:39;2.42;;;1.45;;
79348;SDS011;68817;48.110;11.660;2023-07-31T13:50:04;4.75;;;1.40;;
79348;SDS011;68817;48.110;11.660;2023-07-31T13:52:30;2.50;;;1.40;;
79348;SDS011;68817;48.110;11.660;2023-07-31T13:54:55;2.88;;;1.40;;
79348;SDS011;68817;48.110;11.660;2023-07-31T13:57:20;3.42;;;1.38;;
79348;SDS011;68817;48.110;11.660;2023-07-31T13:59:46;1.80;;;1.30;;
79348;SDS011;68817;48.110;11.660;2023-07-31T14:02:11;2.60;;;1.30;;
79348;SDS011;68817;48.110;11.660;2023-07-31T14:04:37;2.40;;;1.33;;
79348;SDS011;68817;48.110;11.660;2023-07-31T14:07:02;3.92;;;1.42;;
79348;SDS011;68817;48.110;11.660;2023-07-31T14:09:29;4.28;;;1.48;;
79348;SDS011;68817;48.110;11.660;2023-07-31T14:11:55;2.67;;;1.40;;
79348;SDS011;68817;48.110;11.660;2023-07-31T14:14:20;3.78;;;1.45;;
79348;SDS011;68817;48.110;11.660;2023-07-31T14:16:45;2.10;;;1.33;;
79348;SDS011;68817;48.110;11.660;2023-07-31T14:19:11;2.50;;;1.60;;
79348;SDS011;68817;48.110;11.660;2023-07-31T14:21:36;2.67;;;1.48;;
79348;SDS011;68817;48.110;11.660;2023-07-31T14:24:02;4.10;;;1.40;;
79348;SDS011;68817;48.110;11.660;2023-07-31T14:26:27;3.40;;;1.30;;
79348;SDS011;68817;48.110;11.660;2023-07-31T14:28:53;2.83;;;1.33;;
79348;SDS011;68817;48.110;11.660;2023-07-31T14:31:18;2.10;;;1.40;;
79348;SDS011;68817;48.110;11.660;2023-07-31T14:33:43;3.33;;;1.50;;
79348;SDS011;68817;48.110;11.660;2023-07-31T14:36:09;2.20;;;1.30;;
79348;SDS011;68817;48.110;11.660;2023-07-31T14:38:34;3.35;;;1.50;;
79348;SDS011;68817;48.110;11.660;2023-07-31T14:40:59;2.65;;;1.27;;